createdAt,value
2018-09-22T00:01:28.353Z,11.13
2018-09-22T00:03:57.456Z,13.17
2018-09-22T00:06:26.551Z,9.07
2018-09-22T00:08:55.644Z,9.60
2018-09-22T00:11:24.745Z,12.60
2018-09-22T00:13:53.941Z,6.33
2018-09-22T00:16:23.012Z,8.93
2018-09-22T00:18:52.101Z,17.30
2018-09-22T00:21:21.738Z,13.20
2018-09-22T00:23:50.836Z,12.97
2018-09-22T00:26:19.936Z,12.57
2018-09-22T00:28:49.135Z,12.10
2018-09-22T00:31:18.199Z,13.43
2018-09-22T00:33:47.300Z,12.80
2018-09-22T00:36:17.274Z,8.60
2018-09-22T00:38:46.520Z,18.53
2018-09-22T00:41:15.632Z,10.37
2018-09-22T00:43:44.707Z,13.60
2018-09-22T00:46:13.828Z,19.03
2018-09-22T00:48:43.036Z,10.53
2018-09-22T00:51:12.094Z,8.30
2018-09-22T00:53:41.163Z,11.23
2018-09-22T00:56:10.231Z,17.70
2018-09-22T00:58:39.308Z,11.27
2018-09-22T01:01:08.643Z,15.03
2018-09-22T01:03:37.707Z,7.57
2018-09-22T01:06:07.029Z,11.40
2018-09-22T01:08:36.084Z,7.47
2018-09-22T01:11:05.415Z,9.97
2018-09-22T01:13:34.479Z,10.20
2018-09-22T01:16:03.808Z,12.13
2018-09-22T01:18:33.006Z,9.17
2018-09-22T01:21:02.787Z,5.70
2018-09-22T01:23:32.544Z,6.40
2018-09-22T01:26:01.676Z,12.27
2018-09-22T01:28:30.754Z,11.57
2018-09-22T01:30:59.841Z,8.30
2018-09-22T01:33:35.675Z,5.57
2018-09-22T01:36:05.304Z,10.10
2018-09-22T01:38:34.454Z,7.90
2018-09-22T01:41:03.554Z,2.77
2018-09-22T01:43:33.311Z,4.53
2018-09-22T01:46:02.890Z,7.10
2018-09-22T01:48:31.972Z,2.67
2018-09-22T01:51:01.472Z,4.60
2018-09-22T01:53:30.585Z,4.10
2018-09-22T01:55:59.627Z,7.33
2018-09-22T01:58:28.725Z,5.50
2018-09-22T02:00:57.823Z,2.30
2018-09-22T02:03:26.895Z,5.50
2018-09-22T02:05:55.952Z,6.37
2018-09-22T02:08:25.367Z,5.20
2018-09-22T02:10:54.435Z,6.43
2018-09-22T02:13:23.539Z,7.23
2018-09-22T02:15:52.826Z,4.40
2018-09-22T02:18:21.912Z,11.10
2018-09-22T02:20:51.013Z,8.80
2018-09-22T02:23:20.061Z,5.53
2018-09-22T02:25:49.142Z,10.37
2018-09-22T02:28:18.783Z,9.10
2018-09-22T02:30:47.898Z,16.13
2018-09-22T02:33:16.977Z,6.60
2018-09-22T02:35:46.061Z,12.43
2018-09-22T02:38:15.110Z,9.60
2018-09-22T02:40:44.228Z,14.97
2018-09-22T02:43:13.439Z,5.53
2018-09-22T02:45:42.529Z,11.37
2018-09-22T02:48:11.579Z,9.23
2018-09-22T02:50:41.153Z,11.63
2018-09-22T02:53:10.301Z,7.67
2018-09-22T02:55:39.483Z,13.23
2018-09-22T02:58:08.580Z,19.97
2018-09-22T03:00:38.808Z,11.80
2018-09-22T03:03:07.912Z,15.27
2018-09-22T03:05:36.984Z,11.10
2018-09-22T03:08:06.089Z,13.17
2018-09-22T03:10:35.181Z,9.27
2018-09-22T03:13:04.236Z,9.83
2018-09-22T03:15:33.402Z,9.43
2018-09-22T03:18:02.480Z,8.30
2018-09-22T03:20:31.597Z,7.40
2018-09-22T03:23:00.771Z,13.40
2018-09-22T03:25:29.957Z,13.87
2018-09-22T03:27:59.402Z,6.90
2018-09-22T03:30:28.612Z,13.00
2018-09-22T03:32:58.324Z,11.10
2018-09-22T03:35:27.389Z,8.03
2018-09-22T03:37:56.948Z,10.43
2018-09-22T03:40:26.076Z,11.93
2018-09-22T03:42:55.808Z,13.17
2018-09-22T03:45:24.859Z,10.27
2018-09-22T03:47:54.040Z,8.80
2018-09-22T03:50:23.193Z,12.87
2018-09-22T03:52:52.323Z,15.97
2018-09-22T03:55:21.423Z,9.30
2018-09-22T03:57:50.508Z,12.27
2018-09-22T04:00:19.583Z,9.13
2018-09-22T04:05:15.190Z,11.67
2018-09-22T04:07:44.300Z,11.73
2018-09-22T04:10:13.368Z,7.90
2018-09-22T04:12:42.502Z,12.37
2018-09-22T04:15:12.430Z,12.87
2018-09-22T04:17:41.524Z,9.63
2018-09-22T04:20:11.256Z,13.93
2018-09-22T04:22:40.342Z,15.37
2018-09-22T04:25:09.966Z,8.70
2018-09-22T04:27:39.255Z,11.40
2018-09-22T04:30:08.375Z,11.30
2018-09-22T04:32:37.451Z,9.27
2018-09-22T04:35:06.591Z,11.27
2018-09-22T04:37:35.757Z,15.20
2018-09-22T04:40:05.039Z,14.33
2018-09-22T04:42:34.626Z,11.10
2018-09-22T04:45:03.759Z,12.93
2018-09-22T04:47:32.923Z,9.20
2018-09-22T04:50:02.082Z,10.90
2018-09-22T04:52:31.164Z,10.77
2018-09-22T04:55:00.214Z,8.93
2018-09-22T04:57:29.301Z,7.90
2018-09-22T04:59:58.384Z,10.20
2018-09-22T05:02:27.519Z,10.13
2018-09-22T05:04:56.608Z,6.20
2018-09-22T05:07:25.811Z,8.83
2018-09-22T05:09:54.885Z,7.10
2018-09-22T05:12:23.970Z,13.10
2018-09-22T05:14:53.078Z,8.17
2018-09-22T05:17:22.415Z,10.47
2018-09-22T05:19:51.536Z,11.40
2018-09-22T05:22:20.647Z,11.83
2018-09-22T05:24:50.382Z,8.97
2018-09-22T05:27:19.436Z,8.17
2018-09-22T05:29:48.539Z,9.80
2018-09-22T05:32:18.235Z,8.10
2018-09-22T05:34:47.302Z,11.93
2018-09-22T05:37:16.384Z,14.17
2018-09-22T05:39:45.530Z,17.50
2018-09-22T05:42:15.163Z,13.20
2018-09-22T05:44:44.271Z,13.00
2018-09-22T05:47:13.469Z,8.07
2018-09-22T05:49:42.571Z,13.30
2018-09-22T05:52:11.700Z,17.10
2018-09-22T05:54:40.910Z,9.70
2018-09-22T05:57:10.070Z,9.83
2018-09-22T05:59:39.239Z,7.87
2018-09-22T06:02:08.615Z,9.60
2018-09-22T06:04:37.787Z,10.27
2018-09-22T06:07:06.979Z,8.60
2018-09-22T06:09:36.102Z,13.90
2018-09-22T06:12:05.346Z,10.20
2018-09-22T06:14:34.519Z,8.33
2018-09-22T06:17:03.612Z,13.90
2018-09-22T06:19:32.694Z,10.73
2018-09-22T06:22:01.807Z,14.90
2018-09-22T06:24:30.939Z,10.50
2018-09-22T06:27:00.182Z,15.50
2018-09-22T06:29:29.371Z,10.13
2018-09-22T06:31:59.236Z,9.87
2018-09-22T06:34:28.527Z,10.33
2018-09-22T06:36:57.603Z,9.90
2018-09-22T06:39:26.716Z,12.43
2018-09-22T06:41:55.891Z,11.03
2018-09-22T06:44:24.977Z,6.67
2018-09-22T06:46:54.173Z,12.23
2018-09-22T06:49:23.327Z,11.43
2018-09-22T06:51:52.547Z,9.03
2018-09-22T06:54:21.660Z,7.23
2018-09-22T06:56:50.797Z,11.00
2018-09-22T06:59:19.936Z,9.83
2018-09-22T07:01:49.041Z,9.60
2018-09-22T07:04:18.146Z,8.73
2018-09-22T07:06:47.824Z,7.20
2018-09-22T07:09:16.943Z,6.83
2018-09-22T07:11:46.152Z,8.33
2018-09-22T07:14:15.233Z,7.97
2018-09-22T07:16:44.934Z,10.23
2018-09-22T07:19:14.711Z,8.33
2018-09-22T07:21:50.585Z,8.23
2018-09-22T07:24:19.840Z,8.67
2018-09-22T07:26:49.088Z,7.37
2018-09-22T07:29:18.275Z,7.60
2018-09-22T07:31:47.580Z,7.27
2018-09-22T07:34:16.704Z,12.07
2018-09-22T07:36:45.861Z,13.73
2018-09-22T07:39:15.029Z,7.80
2018-09-22T07:41:45.379Z,14.50
2018-09-22T07:44:14.551Z,14.30
2018-09-22T07:46:43.688Z,8.80
2018-09-22T07:49:12.866Z,8.73
2018-09-22T07:51:42.107Z,10.17
2018-09-22T07:54:11.823Z,11.57
2018-09-22T07:56:40.961Z,8.67
2018-09-22T07:59:10.188Z,9.83
2018-09-22T08:01:39.390Z,11.10
2018-09-22T08:04:08.668Z,8.73
2018-09-22T08:06:37.831Z,10.60
2018-09-22T08:09:08.106Z,11.23
2018-09-22T08:11:37.368Z,11.53
2018-09-22T08:14:06.592Z,11.50
2018-09-22T08:16:36.497Z,9.67
2018-09-22T08:19:05.849Z,8.07
2018-09-22T08:21:35.006Z,18.50
2018-09-22T08:24:04.188Z,9.47
2018-09-22T08:26:34.246Z,5.50
2018-09-22T08:29:03.462Z,9.43
2018-09-22T08:31:33.491Z,11.77
2018-09-22T08:34:02.664Z,8.10
2018-09-22T08:36:32.095Z,6.47
2018-09-22T08:39:01.018Z,7.53
2018-09-22T08:41:30.140Z,14.67
2018-09-22T08:43:59.319Z,8.90
2018-09-22T08:46:28.866Z,12.13
2018-09-22T08:48:58.091Z,8.93
2018-09-22T08:51:27.228Z,14.33
2018-09-22T08:53:56.353Z,7.50
2018-09-22T08:56:25.495Z,7.10
2018-09-22T08:58:54.592Z,3.30
2018-09-22T09:01:30.456Z,6.03
2018-09-22T09:03:59.855Z,12.40
2018-09-22T09:06:29.045Z,7.63
2018-09-22T09:08:58.152Z,8.90
2018-09-22T09:11:27.356Z,6.00
2018-09-22T09:13:57.143Z,8.63
2018-09-22T09:16:27.003Z,10.90
2018-09-22T09:18:56.113Z,11.20
2018-09-22T09:21:25.275Z,12.40
2018-09-22T09:23:54.440Z,8.33
2018-09-22T09:26:24.519Z,5.03
2018-09-22T09:28:53.639Z,8.67
2018-09-22T09:31:22.870Z,6.67
2018-09-22T09:33:51.986Z,7.77
2018-09-22T09:36:21.515Z,10.43
2018-09-22T09:38:56.313Z,9.10
2018-09-22T09:41:26.108Z,7.37
2018-09-22T09:43:55.195Z,9.77
2018-09-22T09:46:25.138Z,8.70
2018-09-22T09:48:54.395Z,8.80
2018-09-22T09:51:24.195Z,5.00
2018-09-22T09:53:53.297Z,5.17
2018-09-22T09:56:22.457Z,4.30
2018-09-22T09:58:51.727Z,6.70
2018-09-22T10:01:20.894Z,7.13
2018-09-22T10:03:50.817Z,8.63
2018-09-22T10:06:20.031Z,5.83
2018-09-22T10:08:49.157Z,6.10
2018-09-22T10:11:18.299Z,7.20
2018-09-22T10:13:47.457Z,3.87
2018-09-22T10:16:16.692Z,6.87
2018-09-22T10:18:45.843Z,7.53
2018-09-22T10:21:16.304Z,7.80
2018-09-22T10:23:45.472Z,3.77
2018-09-22T10:26:14.834Z,5.10
2018-09-22T10:28:44.066Z,3.57
2018-09-22T10:31:14.375Z,4.57
2018-09-22T10:33:43.474Z,3.00
2018-09-22T10:36:13.333Z,6.30
2018-09-22T10:38:42.538Z,8.70
2018-09-22T10:41:11.747Z,5.40
2018-09-22T10:43:41.679Z,5.23
2018-09-22T10:46:10.852Z,4.23
2018-09-22T10:48:39.984Z,7.10
2018-09-22T10:51:09.632Z,5.33
2018-09-22T10:53:38.737Z,3.23
2018-09-22T10:56:07.849Z,4.20
2018-09-22T10:58:36.940Z,4.73
2018-09-22T11:01:06.114Z,8.10
2018-09-22T11:03:35.294Z,5.03
2018-09-22T11:06:04.450Z,2.13
2018-09-22T11:08:34.190Z,5.13
2018-09-22T11:11:03.452Z,5.63
2018-09-22T11:13:32.699Z,6.03
2018-09-22T11:16:01.798Z,5.47
2018-09-22T11:18:31.619Z,3.40
2018-09-22T11:21:00.711Z,4.20
2018-09-22T11:23:29.910Z,3.87
2018-09-22T11:25:59.059Z,2.60
2018-09-22T11:28:28.613Z,9.10
2018-09-22T11:30:58.233Z,4.23
2018-09-22T11:33:27.371Z,4.60
2018-09-22T11:35:56.549Z,5.40
2018-09-22T11:38:25.757Z,3.83
2018-09-22T11:40:54.999Z,4.70
2018-09-22T11:43:24.199Z,7.03
2018-09-22T11:45:54.332Z,4.30
2018-09-22T11:48:23.484Z,7.77
2018-09-22T11:50:52.603Z,5.37
2018-09-22T11:53:21.771Z,4.70
2018-09-22T11:55:51.123Z,2.67
2018-09-22T11:58:20.296Z,5.57
2018-09-22T12:00:49.570Z,5.20
2018-09-22T12:03:19.012Z,5.23
2018-09-22T12:05:48.183Z,4.23
2018-09-22T12:08:17.366Z,4.27
2018-09-22T12:10:46.539Z,3.07
2018-09-22T12:13:15.972Z,2.90
2018-09-22T12:15:45.238Z,2.13
2018-09-22T12:18:14.440Z,3.80
2018-09-22T12:20:43.718Z,4.93
2018-09-22T12:23:13.537Z,3.63
2018-09-22T12:25:42.668Z,8.30
2018-09-22T12:28:11.980Z,5.10
2018-09-22T12:30:41.143Z,3.63
2018-09-22T12:33:10.310Z,2.60
2018-09-22T12:35:39.435Z,4.50
2018-09-22T12:38:08.634Z,3.77
2018-09-22T12:40:37.949Z,8.30
2018-09-22T12:43:07.062Z,6.53
2018-09-22T12:45:36.253Z,4.30
2018-09-22T12:48:05.723Z,3.80
2018-09-22T12:50:35.040Z,3.13
2018-09-22T12:53:04.341Z,7.13
2018-09-22T12:55:33.750Z,5.13
2018-09-22T12:58:02.934Z,3.60
2018-09-22T13:00:32.106Z,3.73
2018-09-22T13:03:01.716Z,3.33
2018-09-22T13:05:31.355Z,3.80
2018-09-22T13:08:01.508Z,5.93
2018-09-22T13:10:30.636Z,2.63
2018-09-22T13:13:00.447Z,6.83
2018-09-22T13:15:30.143Z,2.50
2018-09-22T13:17:59.513Z,8.47
2018-09-22T13:20:28.629Z,6.13
2018-09-22T13:22:59.253Z,5.53
2018-09-22T13:25:29.013Z,2.87
2018-09-22T13:27:58.567Z,4.00
2018-09-22T13:30:28.332Z,7.07
2018-09-22T13:32:57.556Z,4.83
2018-09-22T13:35:26.660Z,6.37
2018-09-22T13:37:55.855Z,5.40
2018-09-22T13:40:25.107Z,3.73
2018-09-22T13:42:54.237Z,5.27
2018-09-22T13:45:23.417Z,7.63
2018-09-22T13:47:52.603Z,4.60
2018-09-22T13:50:21.772Z,4.93
2018-09-22T13:52:52.318Z,5.23
2018-09-22T13:55:21.739Z,5.37
2018-09-22T13:57:51.520Z,4.03
2018-09-22T14:00:21.185Z,3.50
2018-09-22T14:02:50.388Z,7.20
2018-09-22T14:05:19.557Z,6.27
2018-09-22T14:07:48.859Z,5.47
2018-09-22T14:10:18.747Z,4.60
2018-09-22T14:12:48.180Z,6.60
2018-09-22T14:15:17.370Z,6.77
2018-09-22T14:17:49.837Z,5.70
2018-09-22T14:20:19.680Z,10.23
2018-09-22T14:22:48.852Z,6.07
2018-09-22T14:25:18.717Z,8.80
2018-09-22T14:27:47.856Z,4.33
2018-09-22T14:30:17.165Z,3.97
2018-09-22T14:32:47.011Z,7.30
2018-09-22T14:35:16.302Z,6.90
2018-09-22T14:37:45.394Z,8.67
2018-09-22T14:40:14.664Z,6.10
2018-09-22T14:42:44.446Z,4.70
2018-09-22T14:45:13.642Z,4.83
2018-09-22T14:47:42.756Z,5.07
2018-09-22T14:50:12.025Z,6.70
2018-09-22T14:52:41.208Z,9.80
2018-09-22T14:55:10.443Z,5.83
2018-09-22T14:57:39.628Z,6.63
2018-09-22T15:00:08.853Z,6.30
2018-09-22T15:02:37.992Z,4.40
2018-09-22T15:05:07.421Z,5.33
2018-09-22T15:07:36.764Z,6.47
2018-09-22T15:10:06.276Z,4.40
2018-09-22T15:12:35.427Z,7.87
2018-09-22T15:15:05.004Z,4.60
2018-09-22T15:17:34.626Z,4.80
2018-09-22T15:20:03.832Z,7.93
2018-09-22T15:22:33.016Z,6.97
2018-09-22T15:25:02.285Z,6.23
2018-09-22T15:27:31.808Z,8.67
2018-09-22T15:30:00.910Z,5.97
2018-09-22T15:32:30.831Z,8.77
2018-09-22T15:35:00.179Z,7.57
2018-09-22T15:37:29.414Z,8.03
2018-09-22T15:39:58.654Z,7.23
2018-09-22T15:42:28.384Z,12.00
2018-09-22T15:44:57.642Z,4.33
2018-09-22T15:47:26.916Z,3.10
2018-09-22T15:49:56.173Z,4.97
2018-09-22T15:52:25.369Z,6.80
2018-09-22T15:54:54.618Z,4.60
2018-09-22T15:57:24.492Z,5.97
2018-09-22T15:59:53.628Z,2.80
2018-09-22T16:02:24.373Z,3.30
2018-09-22T16:04:53.472Z,3.40
2018-09-22T16:07:22.778Z,3.10
2018-09-22T16:09:51.921Z,2.60
2018-09-22T16:12:21.157Z,6.73
2018-09-22T16:14:50.583Z,3.63
2018-09-22T16:17:19.759Z,4.50
2018-09-22T16:19:48.941Z,5.80
2018-09-22T16:22:18.091Z,4.20
2018-09-22T16:24:47.429Z,2.70
2018-09-22T16:27:16.653Z,1.93
2018-09-22T16:29:45.946Z,5.63
2018-09-22T16:32:15.229Z,3.67
2018-09-22T16:34:44.464Z,3.10
2018-09-22T16:37:13.737Z,6.20
2018-09-22T16:39:43.435Z,2.50
2018-09-22T16:42:13.288Z,4.73
2018-09-22T16:44:42.526Z,2.03
2018-09-22T16:47:12.403Z,4.20
2018-09-22T16:49:41.592Z,3.40
2018-09-22T16:52:10.972Z,5.10
2018-09-22T16:54:40.105Z,2.30
2018-09-22T16:57:09.307Z,2.50
2018-09-22T16:59:38.476Z,3.40
2018-09-22T17:02:07.597Z,2.87
2018-09-22T17:04:38.073Z,4.63
2018-09-22T17:07:07.220Z,2.60
2018-09-22T17:09:36.409Z,2.70
2018-09-22T17:12:06.496Z,2.27
2018-09-22T17:14:35.710Z,3.47
2018-09-22T17:17:04.946Z,6.03
2018-09-22T17:19:34.924Z,3.30
2018-09-22T17:22:04.121Z,3.63
2018-09-22T17:24:33.235Z,2.83
2018-09-22T17:27:02.428Z,3.77
2018-09-22T17:29:31.718Z,4.37
2018-09-22T17:32:00.892Z,3.20
2018-09-22T17:34:30.706Z,3.10
2018-09-22T17:36:59.928Z,7.43
2018-09-22T17:39:29.014Z,6.53
2018-09-22T17:41:58.813Z,3.60
2018-09-22T17:44:28.227Z,6.57
2018-09-22T17:46:58.565Z,7.33
2018-09-22T17:49:27.753Z,7.60
2018-09-22T17:51:57.651Z,4.17
2018-09-22T17:54:26.784Z,5.40
2018-09-22T17:56:56.501Z,5.70
2018-09-22T17:59:25.693Z,3.40
2018-09-22T18:01:54.863Z,3.43
2018-09-22T18:04:24.172Z,3.30
2018-09-22T18:06:53.488Z,3.87
2018-09-22T18:09:23.254Z,5.53
2018-09-22T18:11:52.685Z,2.17
2018-09-22T18:14:22.607Z,4.33
2018-09-22T18:16:51.914Z,3.93
2018-09-22T18:19:21.173Z,2.80
2018-09-22T18:21:50.376Z,3.73
2018-09-22T18:24:19.702Z,3.93
2018-09-22T18:26:49.092Z,5.60
2018-09-22T18:29:18.847Z,3.20
2018-09-22T18:31:48.016Z,3.27
2018-09-22T18:34:17.331Z,2.90
2018-09-22T18:36:46.528Z,3.60
2018-09-22T18:39:15.755Z,6.83
2018-09-22T18:41:47.886Z,3.40
2018-09-22T18:44:17.241Z,3.33
2018-09-22T18:46:46.343Z,4.40
2018-09-22T18:49:16.673Z,4.43
2018-09-22T18:51:45.874Z,3.47
2018-09-22T18:54:15.076Z,6.37
2018-09-22T18:56:44.843Z,2.97
2018-09-22T18:59:14.135Z,6.63
2018-09-22T19:01:43.789Z,4.00
2018-09-22T19:04:12.958Z,3.17
2018-09-22T19:06:42.375Z,4.13
2018-09-22T19:09:11.816Z,5.03
2018-09-22T19:11:41.230Z,2.43
2018-09-22T19:14:19.112Z,5.23
2018-09-22T19:16:51.780Z,3.10
2018-09-22T19:19:26.041Z,8.83
2018-09-22T19:22:02.224Z,3.47
2018-09-22T19:25:34.710Z,5.10
2018-09-22T19:28:07.315Z,4.53
2018-09-22T19:30:41.226Z,2.67
2018-09-22T19:33:15.314Z,7.70
2018-09-22T19:35:51.187Z,4.50
2018-09-22T19:38:26.776Z,4.33
2018-09-22T19:40:59.460Z,4.13
2018-09-22T19:43:41.427Z,3.50
2018-09-22T19:46:18.802Z,4.40
2018-09-22T19:48:52.613Z,5.10
2018-09-22T19:51:23.885Z,4.80
2018-09-22T19:53:55.411Z,6.33
2018-09-22T19:56:24.580Z,4.53
2018-09-22T19:58:53.775Z,9.03
2018-09-22T20:01:23.052Z,6.63
2018-09-22T20:03:53.159Z,5.80
2018-09-22T20:06:23.054Z,5.03
2018-09-22T20:08:52.650Z,10.23
2018-09-22T20:11:21.945Z,5.80
2018-09-22T20:13:51.867Z,5.80
2018-09-22T20:16:21.481Z,4.80
2018-09-22T20:18:50.930Z,6.87
2018-09-22T20:21:20.227Z,5.40
2018-09-22T20:23:49.779Z,10.00
2018-09-22T20:26:19.007Z,10.87
2018-09-22T20:28:48.171Z,5.93
2018-09-22T20:31:17.453Z,7.73
2018-09-22T20:33:46.770Z,5.23
2018-09-22T20:36:16.046Z,9.53
2018-09-22T20:38:52.754Z,5.93
2018-09-22T20:41:21.938Z,10.60
2018-09-22T20:43:51.115Z,5.33
2018-09-22T20:46:21.216Z,6.07
2018-09-22T20:48:50.434Z,7.20
2018-09-22T20:51:21.213Z,6.93
2018-09-22T20:53:50.468Z,6.43
2018-09-22T20:56:20.533Z,8.10
2018-09-22T20:58:50.493Z,9.90
2018-09-22T21:01:19.637Z,8.27
2018-09-22T21:03:48.939Z,7.53
2018-09-22T21:06:19.380Z,7.90
2018-09-22T21:08:49.221Z,9.03
2018-09-22T21:11:18.497Z,6.80
2018-09-22T21:13:48.700Z,10.03
2018-09-22T21:16:18.409Z,8.13
2018-09-22T21:18:47.594Z,7.43
2018-09-22T21:21:17.162Z,12.10
2018-09-22T21:23:46.247Z,11.03
2018-09-22T21:26:15.630Z,8.20
2018-09-22T21:28:44.791Z,9.60
2018-09-22T21:31:14.036Z,13.90
2018-09-22T21:33:43.439Z,10.20
2018-09-22T21:36:12.585Z,8.90
2018-09-22T21:38:41.774Z,9.73
2018-09-22T21:41:10.901Z,9.27
2018-09-22T21:43:40.242Z,13.17
2018-09-22T21:46:10.060Z,10.27
2018-09-22T21:48:39.339Z,11.20
2018-09-22T21:51:09.095Z,10.10
2018-09-22T21:53:38.325Z,10.00
2018-09-22T21:56:07.480Z,10.43
2018-09-22T21:58:37.401Z,12.47
2018-09-22T22:01:10.886Z,9.50
2018-09-22T22:03:41.023Z,8.17
2018-09-22T22:06:10.659Z,11.20
2018-09-22T22:08:39.933Z,8.27
2018-09-22T22:11:09.159Z,8.47
2018-09-22T22:13:38.410Z,8.60
2018-09-22T22:16:08.283Z,9.23
2018-09-22T22:18:37.456Z,10.97
2018-09-22T22:21:06.714Z,8.83
2018-09-22T22:23:36.146Z,9.37
2018-09-22T22:26:05.564Z,10.60
2018-09-22T22:28:35.728Z,8.00
2018-09-22T22:31:04.860Z,7.43
2018-09-22T22:33:34.184Z,8.67
2018-09-22T22:36:05.414Z,7.30
2018-09-22T22:38:34.568Z,8.93
2018-09-22T22:41:05.180Z,10.87
2018-09-22T22:43:34.333Z,9.70
2018-09-22T22:46:03.672Z,9.40
2018-09-22T22:48:33.926Z,6.20
2018-09-22T22:51:04.149Z,9.20
2018-09-22T22:53:33.524Z,6.00
2018-09-22T22:56:02.619Z,8.63
2018-09-22T22:58:31.901Z,6.43
2018-09-22T23:01:01.340Z,6.20
2018-09-22T23:03:30.489Z,8.63
2018-09-22T23:06:00.352Z,6.43
2018-09-22T23:08:29.452Z,6.00
2018-09-22T23:10:58.577Z,7.93
2018-09-22T23:13:27.681Z,8.73
2018-09-22T23:15:56.807Z,8.80
2018-09-22T23:18:25.976Z,6.03
2018-09-22T23:20:55.133Z,6.80
2018-09-22T23:23:24.216Z,6.13
2018-09-22T23:25:53.368Z,7.37
2018-09-22T23:28:22.672Z,11.87
2018-09-22T23:30:52.663Z,8.57
2018-09-22T23:33:21.804Z,6.13
2018-09-22T23:35:50.959Z,6.10
2018-09-22T23:38:20.031Z,8.00
2018-09-22T23:40:49.133Z,8.00
2018-09-22T23:43:18.450Z,6.27
2018-09-22T23:45:47.612Z,9.50
2018-09-22T23:48:16.883Z,7.83
2018-09-22T23:50:45.990Z,6.60
2018-09-22T23:53:15.727Z,7.53
2018-09-22T23:55:45.390Z,8.27
2018-09-22T23:58:14.494Z,9.50
